sensor_id;sensor_type;location;lat;lon;timestamp;pressure;altitude;pressure_sealevel;temperature
24278;BMP280;12394;42.692;23.314;2022-11-20T00:00:27;94297.94;;;15.84
24278;BMP280;12394;42.692;23.314;2022-11-20T00:02:52;94299.53;;;15.81
24278;BMP280;12394;42.692;23.314;2022-11-20T00:05:18;94236.53;;;15.74
24278;BMP280;12394;42.692;23.314;2022-11-20T00:07:44;94282.47;;;16.13
24278;BMP280;12394;42.692;23.314;2022-11-20T00:10:09;94282.66;;;17.19
24278;BMP280;12394;42.692;23.314;2022-11-20T00:12:35;94284.94;;;17.62
24278;BMP280;12394;42.692;23.314;2022-11-20T00:15:00;94274.31;;;17.71
24278;BMP280;12394;42.692;23.314;2022-11-20T00:17:26;94284.75;;;17.75
24278;BMP280;12394;42.692;23.314;2022-11-20T00:19:51;94284.03;;;17.65
24278;BMP280;12394;42.692;23.314;2022-11-20T00:22:16;94247.50;;;17.46
24278;BMP280;12394;42.692;23.314;2022-11-20T00:24:42;94248.25;;;17.37
24278;BMP280;12394;42.692;23.314;2022-11-20T00:27:07;94261.50;;;17.28
24278;BMP280;12394;42.692;23.314;2022-11-20T00:29:32;94272.03;;;17.46
24278;BMP280;12394;42.692;23.314;2022-11-20T00:31:58;94257.75;;;17.53
24278;BMP280;12394;42.692;23.314;2022-11-20T00:34:23;94261.59;;;17.94
24278;BMP280;12394;42.692;23.314;2022-11-20T00:36:49;94249.47;;;18.02
24278;BMP280;12394;42.692;23.314;2022-11-20T00:39:14;94238.38;;;18.12
24278;BMP280;12394;42.692;23.314;2022-11-20T00:41:39;94223.22;;;18.13
24278;BMP280;12394;42.692;23.314;2022-11-20T00:44:05;94253.81;;;18.38
24278;BMP280;12394;42.692;23.314;2022-11-20T00:46:30;94259.84;;;18.38
24278;BMP280;12394;42.692;23.314;2022-11-20T00:48:56;94269.13;;;18.34
24278;BMP280;12394;42.692;23.314;2022-11-20T00:51:23;94292.56;;;18.50
24278;BMP280;12394;42.692;23.314;2022-11-20T00:53:49;94255.16;;;18.72
24278;BMP280;12394;42.692;23.314;2022-11-20T00:56:17;94238.75;;;18.82
24278;BMP280;12394;42.692;23.314;2022-11-20T00:58:45;94260.91;;;18.94
24278;BMP280;12394;42.692;23.314;2022-11-20T01:01:16;94218.56;;;18.85
24278;BMP280;12394;42.692;23.314;2022-11-20T01:03:44;94247.91;;;19.10
24278;BMP280;12394;42.692;23.314;2022-11-20T01:06:19;94278.28;;;19.24
24278;BMP280;12394;42.692;23.314;2022-11-20T01:08:44;94276.25;;;19.19
24278;BMP280;12394;42.692;23.314;2022-11-20T01:11:19;94240.94;;;19.13
24278;BMP280;12394;42.692;23.314;2022-11-20T01:13:46;94243.16;;;19.15
24278;BMP280;12394;42.692;23.314;2022-11-20T01:16:27;94247.91;;;19.10
24278;BMP280;12394;42.692;23.314;2022-11-20T01:18:55;94224.25;;;19.07
24278;BMP280;12394;42.692;23.314;2022-11-20T01:21:29;94236.84;;;19.12
24278;BMP280;12394;42.692;23.314;2022-11-20T01:23:55;94240.94;;;19.13
24278;BMP280;12394;42.692;23.314;2022-11-20T01:26:32;94242.78;;;19.07
24278;BMP280;12394;42.692;23.314;2022-11-20T01:28:59;94227.06;;;19.03
24278;BMP280;12394;42.692;23.314;2022-11-20T01:31:28;94241.88;;;19.10
24278;BMP280;12394;42.692;23.314;2022-11-20T01:33:56;94235.84;;;19.09
24278;BMP280;12394;42.692;23.314;2022-11-20T01:36:24;94206.13;;;19.20
24278;BMP280;12394;42.692;23.314;2022-11-20T01:38:54;94239.50;;;19.12
24278;BMP280;12394;42.692;23.314;2022-11-20T01:41:21;94211.88;;;19.19
24278;BMP280;12394;42.692;23.314;2022-11-20T01:44:05;94203.66;;;19.17
24278;BMP280;12394;42.692;23.314;2022-11-20T01:46:35;94211.72;;;19.07
24278;BMP280;12394;42.692;23.314;2022-11-20T01:49:09;94246.00;;;19.11
24278;BMP280;12394;42.692;23.314;2022-11-20T01:52:05;94236.03;;;19.06
24278;BMP280;12394;42.692;23.314;2022-11-20T01:54:41;94234.19;;;18.97
24278;BMP280;12394;42.692;23.314;2022-11-20T01:57:10;94213.34;;;18.90
24278;BMP280;12394;42.692;23.314;2022-11-20T01:59:41;94248.34;;;18.94
24278;BMP280;12394;42.692;23.314;2022-11-20T02:02:08;94230.91;;;19.02
24278;BMP280;12394;42.692;23.314;2022-11-20T02:04:33;94227.72;;;18.98
24278;BMP280;12394;42.692;23.314;2022-11-20T02:07:00;94244.25;;;19.08
24278;BMP280;12394;42.692;23.314;2022-11-20T02:09:27;94205.13;;;19.03
24278;BMP280;12394;42.692;23.314;2022-11-20T02:11:53;94237.03;;;19.08
24278;BMP280;12394;42.692;23.314;2022-11-20T02:14:19;94257.25;;;19.06
24278;BMP280;12394;42.692;23.314;2022-11-20T02:16:47;94218.84;;;19.01
24278;BMP280;12394;42.692;23.314;2022-11-20T02:19:28;94224.41;;;19.18
24278;BMP280;12394;42.692;23.314;2022-11-20T02:24:39;94217.53;;;19.26
24278;BMP280;12394;42.692;23.314;2022-11-20T02:27:08;94221.50;;;19.16
24278;BMP280;12394;42.692;23.314;2022-11-20T02:29:39;94200.28;;;19.16
24278;BMP280;12394;42.692;23.314;2022-11-20T02:32:06;94232.56;;;19.15
24278;BMP280;12394;42.692;23.314;2022-11-20T02:34:31;94209.22;;;19.04
24278;BMP280;12394;42.692;23.314;2022-11-20T02:36:57;94246.88;;;19.08
24278;BMP280;12394;42.692;23.314;2022-11-20T02:39:25;94224.78;;;18.96
24278;BMP280;12394;42.692;23.314;2022-11-20T02:41:53;94229.97;;;18.91
24278;BMP280;12394;42.692;23.314;2022-11-20T02:44:19;94183.91;;;18.74
24278;BMP280;12394;42.692;23.314;2022-11-20T02:46:45;94261.25;;;19.01
24278;BMP280;12394;42.692;23.314;2022-11-20T02:49:11;94260.53;;;19.01
24278;BMP280;12394;42.692;23.314;2022-11-20T02:51:36;94253.31;;;19.01
24278;BMP280;12394;42.692;23.314;2022-11-20T02:54:02;94237.09;;;18.99
24278;BMP280;12394;42.692;23.314;2022-11-20T02:56:28;94272.22;;;19.09
24278;BMP280;12394;42.692;23.314;2022-11-20T02:58:53;94254.59;;;19.06
24278;BMP280;12394;42.692;23.314;2022-11-20T03:01:18;94246.28;;;18.98
24278;BMP280;12394;42.692;23.314;2022-11-20T03:03:44;94278.16;;;18.89
24278;BMP280;12394;42.692;23.314;2022-11-20T03:06:09;94238.47;;;18.65
24278;BMP280;12394;42.692;23.314;2022-11-20T03:08:35;94283.00;;;18.91
24278;BMP280;12394;42.692;23.314;2022-11-20T03:11:05;94272.28;;;18.85
24278;BMP280;12394;42.692;23.314;2022-11-20T03:13:31;94286.19;;;18.80
24278;BMP280;12394;42.692;23.314;2022-11-20T03:15:56;94290.81;;;18.71
24278;BMP280;12394;42.692;23.314;2022-11-20T03:18:22;94266.13;;;18.64
24278;BMP280;12394;42.692;23.314;2022-11-20T03:20:47;94277.91;;;18.63
24278;BMP280;12394;42.692;23.314;2022-11-20T03:23:12;94292.06;;;18.60
24278;BMP280;12394;42.692;23.314;2022-11-20T03:25:38;94278.94;;;18.42
24278;BMP280;12394;42.692;23.314;2022-11-20T03:28:03;94284.84;;;18.37
24278;BMP280;12394;42.692;23.314;2022-11-20T03:30:29;94295.66;;;18.48
24278;BMP280;12394;42.692;23.314;2022-11-20T03:32:54;94295.66;;;18.48
24278;BMP280;12394;42.692;23.314;2022-11-20T03:35:20;94310.22;;;18.29
24278;BMP280;12394;42.692;23.314;2022-11-20T03:37:45;94307.56;;;18.29
24278;BMP280;12394;42.692;23.314;2022-11-20T03:40:11;94322.72;;;18.29
24278;BMP280;12394;42.692;23.314;2022-11-20T03:42:37;94299.09;;;18.16
24278;BMP280;12394;42.692;23.314;2022-11-20T03:45:13;94322.03;;;18.19
24278;BMP280;12394;42.692;23.314;2022-11-20T03:47:39;94327.03;;;18.17
24278;BMP280;12394;42.692;23.314;2022-11-20T03:50:05;94292.59;;;18.17
24278;BMP280;12394;42.692;23.314;2022-11-20T03:52:30;94314.38;;;18.21
24278;BMP280;12394;42.692;23.314;2022-11-20T03:54:55;94316.00;;;18.18
24278;BMP280;12394;42.692;23.314;2022-11-20T03:57:21;94301.69;;;18.25
24278;BMP280;12394;42.692;23.314;2022-11-20T03:59:46;94322.97;;;18.31
24278;BMP280;12394;42.692;23.314;2022-11-20T04:02:12;94317.19;;;18.41
24278;BMP280;12394;42.692;23.314;2022-11-20T04:04:37;94313.69;;;18.35
24278;BMP280;12394;42.692;23.314;2022-11-20T04:07:02;94322.09;;;18.34
24278;BMP280;12394;42.692;23.314;2022-11-20T04:09:28;94320.50;;;18.27
24278;BMP280;12394;42.692;23.314;2022-11-20T04:11:53;94312.16;;;18.19
24278;BMP280;12394;42.692;23.314;2022-11-20T04:14:20;94311.00;;;18.20
24278;BMP280;12394;42.692;23.314;2022-11-20T04:16:45;94319.09;;;18.17
24278;BMP280;12394;42.692;23.314;2022-11-20T04:19:13;94291.47;;;18.09
24278;BMP280;12394;42.692;23.314;2022-11-20T04:21:39;94296.78;;;18.09
24278;BMP280;12394;42.692;23.314;2022-11-20T04:24:05;94316.06;;;18.33
24278;BMP280;12394;42.692;23.314;2022-11-20T04:26:31;94293.59;;;18.29
24278;BMP280;12394;42.692;23.314;2022-11-20T04:28:57;94293.03;;;18.25
24278;BMP280;12394;42.692;23.314;2022-11-20T04:31:42;94317.22;;;18.08
24278;BMP280;12394;42.692;23.314;2022-11-20T04:34:07;94318.50;;;18.13
24278;BMP280;12394;42.692;23.314;2022-11-20T04:36:33;94305.56;;;18.15
24278;BMP280;12394;42.692;23.314;2022-11-20T04:39:01;94331.91;;;18.09
24278;BMP280;12394;42.692;23.314;2022-11-20T04:41:31;94305.38;;;17.95
24278;BMP280;12394;42.692;23.314;2022-11-20T04:43:59;94319.03;;;18.02
24278;BMP280;12394;42.692;23.314;2022-11-20T04:46:27;94299.75;;;18.02
24278;BMP280;12394;42.692;23.314;2022-11-20T04:48:53;94306.91;;;18.10
24278;BMP280;12394;42.692;23.314;2022-11-20T04:51:18;94308.56;;;18.08
24278;BMP280;12394;42.692;23.314;2022-11-20T04:53:44;94297.13;;;18.02
24278;BMP280;12394;42.692;23.314;2022-11-20T04:56:11;94298.53;;;18.12
24278;BMP280;12394;42.692;23.314;2022-11-20T04:58:37;94299.16;;;18.07
24278;BMP280;12394;42.692;23.314;2022-11-20T05:01:07;94265.56;;;18.13
24278;BMP280;12394;42.692;23.314;2022-11-20T05:03:34;94275.31;;;18.07
24278;BMP280;12394;42.692;23.314;2022-11-20T05:06:00;94274.25;;;18.13
24278;BMP280;12394;42.692;23.314;2022-11-20T05:08:26;94287.66;;;18.10
24278;BMP280;12394;42.692;23.314;2022-11-20T05:10:52;94281.88;;;18.20
24278;BMP280;12394;42.692;23.314;2022-11-20T05:13:17;94288.22;;;18.14
24278;BMP280;12394;42.692;23.314;2022-11-20T05:15:43;94263.22;;;18.15
24278;BMP280;12394;42.692;23.314;2022-11-20T05:18:08;94271.78;;;18.10
24278;BMP280;12394;42.692;23.314;2022-11-20T05:20:33;94272.69;;;18.07
24278;BMP280;12394;42.692;23.314;2022-11-20T05:23:01;94278.97;;;18.09
24278;BMP280;12394;42.692;23.314;2022-11-20T05:25:26;94259.31;;;18.01
24278;BMP280;12394;42.692;23.314;2022-11-20T05:27:52;94274.97;;;18.14
24278;BMP280;12394;42.692;23.314;2022-11-20T05:30:18;94264.22;;;18.17
24278;BMP280;12394;42.692;23.314;2022-11-20T05:32:43;94261.13;;;18.19
24278;BMP280;12394;42.692;23.314;2022-11-20T05:35:09;94270.72;;;18.16
24278;BMP280;12394;42.692;23.314;2022-11-20T05:37:34;94280.06;;;18.03
24278;BMP280;12394;42.692;23.314;2022-11-20T05:39:59;94291.47;;;18.09
24278;BMP280;12394;42.692;23.314;2022-11-20T05:42:25;94290.59;;;18.12
24278;BMP280;12394;42.692;23.314;2022-11-20T05:45:00;94294.25;;;18.14
24278;BMP280;12394;42.692;23.314;2022-11-20T05:47:27;94276.81;;;18.08
24278;BMP280;12394;42.692;23.314;2022-11-20T05:49:53;94282.53;;;17.73
24278;BMP280;12394;42.692;23.314;2022-11-20T05:52:18;94294.78;;;17.62
24278;BMP280;12394;42.692;23.314;2022-11-20T05:54:43;94269.22;;;17.50
24278;BMP280;12394;42.692;23.314;2022-11-20T05:57:09;94261.81;;;17.30
24278;BMP280;12394;42.692;23.314;2022-11-20T05:59:34;94276.59;;;17.37
24278;BMP280;12394;42.692;23.314;2022-11-20T06:01:59;94258.59;;;17.26
24278;BMP280;12394;42.692;23.314;2022-11-20T06:04:25;94293.66;;;17.26
24278;BMP280;12394;42.692;23.314;2022-11-20T06:06:50;94284.56;;;17.27
24278;BMP280;12394;42.692;23.314;2022-11-20T06:09:16;94295.88;;;17.28
24278;BMP280;12394;42.692;23.314;2022-11-20T06:11:41;94294.41;;;17.27
24278;BMP280;12394;42.692;23.314;2022-11-20T06:14:06;94290.59;;;17.28
24278;BMP280;12394;42.692;23.314;2022-11-20T06:16:32;94291.00;;;17.35
24278;BMP280;12394;42.692;23.314;2022-11-20T06:18:57;94282.47;;;17.41
24278;BMP280;12394;42.692;23.314;2022-11-20T06:21:23;94271.13;;;17.49
24278;BMP280;12394;42.692;23.314;2022-11-20T06:23:50;94288.75;;;17.52
24278;BMP280;12394;42.692;23.314;2022-11-20T06:26:21;94282.00;;;17.60
24278;BMP280;12394;42.692;23.314;2022-11-20T06:28:47;94289.19;;;17.60
24278;BMP280;12394;42.692;23.314;2022-11-20T06:31:14;94296.22;;;17.63
24278;BMP280;12394;42.692;23.314;2022-11-20T06:33:40;94301.22;;;17.70
24278;BMP280;12394;42.692;23.314;2022-11-20T06:36:06;94296.06;;;17.75
24278;BMP280;12394;42.692;23.314;2022-11-20T06:38:32;94293.97;;;17.80
24278;BMP280;12394;42.692;23.314;2022-11-20T06:40:57;94294.13;;;17.85
24278;BMP280;12394;42.692;23.314;2022-11-20T06:43:23;94308.19;;;17.91
24278;BMP280;12394;42.692;23.314;2022-11-20T06:45:56;94320.91;;;18.11
24278;BMP280;12394;42.692;23.314;2022-11-20T06:48:23;94324.31;;;18.26
24278;BMP280;12394;42.692;23.314;2022-11-20T06:50:49;94310.78;;;18.33
24278;BMP280;12394;42.692;23.314;2022-11-20T06:53:15;94324.94;;;18.54
24278;BMP280;12394;42.692;23.314;2022-11-20T06:55:45;94328.81;;;18.67
24278;BMP280;12394;42.692;23.314;2022-11-20T06:58:11;94320.72;;;18.71
24278;BMP280;12394;42.692;23.314;2022-11-20T07:00:37;94315.16;;;18.84
24278;BMP280;12394;42.692;23.314;2022-11-20T07:03:04;94318.75;;;18.95
24278;BMP280;12394;42.692;23.314;2022-11-20T07:05:29;94321.78;;;19.03
24278;BMP280;12394;42.692;23.314;2022-11-20T07:07:57;94323.81;;;19.23
24278;BMP280;12394;42.692;23.314;2022-11-20T07:10:24;94323.44;;;19.15
24278;BMP280;12394;42.692;23.314;2022-11-20T07:12:50;94330.75;;;19.05
24278;BMP280;12394;42.692;23.314;2022-11-20T07:15:16;94329.69;;;18.88
24278;BMP280;12394;42.692;23.314;2022-11-20T07:17:42;94339.16;;;18.65
24278;BMP280;12394;42.692;23.314;2022-11-20T07:20:07;94323.31;;;18.56
24278;BMP280;12394;42.692;23.314;2022-11-20T07:22:33;94332.00;;;18.57
24278;BMP280;12394;42.692;23.314;2022-11-20T07:24:58;94313.31;;;18.51
24278;BMP280;12394;42.692;23.314;2022-11-20T07:27:24;94332.13;;;18.53
24278;BMP280;12394;42.692;23.314;2022-11-20T07:29:49;94325.88;;;18.42
24278;BMP280;12394;42.692;23.314;2022-11-20T07:32:14;94344.78;;;18.49
24278;BMP280;12394;42.692;23.314;2022-11-20T07:34:40;94341.63;;;18.36
24278;BMP280;12394;42.692;23.314;2022-11-20T07:37:05;94334.31;;;18.31
24278;BMP280;12394;42.692;23.314;2022-11-20T07:39:30;94338.72;;;18.34
24278;BMP280;12394;42.692;23.314;2022-11-20T07:41:56;94346.63;;;18.43
24278;BMP280;12394;42.692;23.314;2022-11-20T07:44:21;94349.25;;;18.43
24278;BMP280;12394;42.692;23.314;2022-11-20T07:46:47;94347.34;;;18.44
24278;BMP280;12394;42.692;23.314;2022-11-20T07:49:12;94337.56;;;18.26
24278;BMP280;12394;42.692;23.314;2022-11-20T07:51:37;94334.22;;;18.26
24278;BMP280;12394;42.692;23.314;2022-11-20T07:54:03;94345.16;;;18.42
24278;BMP280;12394;42.692;23.314;2022-11-20T07:56:28;94348.78;;;18.45
24278;BMP280;12394;42.692;23.314;2022-11-20T07:58:54;94351.91;;;18.43
24278;BMP280;12394;42.692;23.314;2022-11-20T08:01:19;94342.81;;;18.35
24278;BMP280;12394;42.692;23.314;2022-11-20T08:03:44;94347.50;;;18.40
24278;BMP280;12394;42.692;23.314;2022-11-20T08:06:10;94353.34;;;18.53
24278;BMP280;12394;42.692;23.314;2022-11-20T08:08:35;94341.47;;;18.40
24278;BMP280;12394;42.692;23.314;2022-11-20T08:11:01;94337.72;;;18.55
24278;BMP280;12394;42.692;23.314;2022-11-20T08:13:45;94346.56;;;18.76
24278;BMP280;12394;42.692;23.314;2022-11-20T08:16:28;94303.13;;;18.59
24278;BMP280;12394;42.692;23.314;2022-11-20T08:18:54;94317.91;;;18.89
24278;BMP280;12394;42.692;23.314;2022-11-20T08:21:20;94320.34;;;18.78
24278;BMP280;12394;42.692;23.314;2022-11-20T08:23:45;94348.25;;;18.88
24278;BMP280;12394;42.692;23.314;2022-11-20T08:26:11;94334.97;;;18.74
24278;BMP280;12394;42.692;23.314;2022-11-20T08:28:36;94354.75;;;18.31
24278;BMP280;12394;42.692;23.314;2022-11-20T08:31:02;94357.41;;;18.31
24278;BMP280;12394;42.692;23.314;2022-11-20T08:33:29;94357.69;;;18.33
24278;BMP280;12394;42.692;23.314;2022-11-20T08:35:59;94359.94;;;18.58
24278;BMP280;12394;42.692;23.314;2022-11-20T08:38:25;94367.75;;;18.76
24278;BMP280;12394;42.692;23.314;2022-11-20T08:40:50;94362.75;;;18.78
24278;BMP280;12394;42.692;23.314;2022-11-20T08:43:34;94341.31;;;18.43
24278;BMP280;12394;42.692;23.314;2022-11-20T08:45:59;94367.19;;;18.48
24278;BMP280;12394;42.692;23.314;2022-11-20T08:48:25;94388.00;;;18.64
24278;BMP280;12394;42.692;23.314;2022-11-20T08:50:50;94402.09;;;18.05
24278;BMP280;12394;42.692;23.314;2022-11-20T08:53:15;94371.53;;;17.25
24278;BMP280;12394;42.692;23.314;2022-11-20T08:55:41;94397.81;;;17.11
24278;BMP280;12394;42.692;23.314;2022-11-20T08:58:06;94383.69;;;16.86
24278;BMP280;12394;42.692;23.314;2022-11-20T09:00:32;94377.84;;;17.10
24278;BMP280;12394;42.692;23.314;2022-11-20T09:02:58;94367.81;;;17.50
24278;BMP280;12394;42.692;23.314;2022-11-20T09:05:25;94386.28;;;17.87
24278;BMP280;12394;42.692;23.314;2022-11-20T09:07:51;94402.53;;;18.12
24278;BMP280;12394;42.692;23.314;2022-11-20T09:10:16;94397.22;;;18.12
24278;BMP280;12394;42.692;23.314;2022-11-20T09:12:42;94391.19;;;18.12
24278;BMP280;12394;42.692;23.314;2022-11-20T09:15:07;94403.56;;;18.06
24278;BMP280;12394;42.692;23.314;2022-11-20T09:17:33;94399.78;;;17.98
24278;BMP280;12394;42.692;23.314;2022-11-20T09:19:58;94415.69;;;17.89
24278;BMP280;12394;42.692;23.314;2022-11-20T09:22:23;94396.84;;;17.87
24278;BMP280;12394;42.692;23.314;2022-11-20T09:24:49;94397.78;;;17.74
24278;BMP280;12394;42.692;23.314;2022-11-20T09:27:14;94394.38;;;17.74
24278;BMP280;12394;42.692;23.314;2022-11-20T09:30:00;94371.81;;;17.18
24278;BMP280;12394;42.692;23.314;2022-11-20T09:32:25;94372.84;;;16.75
24278;BMP280;12394;42.692;23.314;2022-11-20T09:34:50;94382.75;;;16.53
24278;BMP280;12394;42.692;23.314;2022-11-20T09:37:16;94366.28;;;16.40
24278;BMP280;12394;42.692;23.314;2022-11-20T09:39:41;94370.25;;;16.44
24278;BMP280;12394;42.692;23.314;2022-11-20T09:42:28;94352.16;;;17.01
24278;BMP280;12394;42.692;23.314;2022-11-20T09:45:09;94349.56;;;18.69
24278;BMP280;12394;42.692;23.314;2022-11-20T09:50:32;94332.63;;;21.75
24278;BMP280;12394;42.692;23.314;2022-11-20T09:55:54;94359.19;;;22.75
24278;BMP280;12394;42.692;23.314;2022-11-20T09:58:34;94344.97;;;23.00
24278;BMP280;12394;42.692;23.314;2022-11-20T10:01:13;94350.94;;;24.32
24278;BMP280;12394;42.692;23.314;2022-11-20T10:06:17;94332.97;;;28.06
24278;BMP280;12394;42.692;23.314;2022-11-20T10:08:58;94339.81;;;29.38
24278;BMP280;12394;42.692;23.314;2022-11-20T10:14:21;94336.78;;;29.42
24278;BMP280;12394;42.692;23.314;2022-11-20T10:22:13;94312.41;;;27.44
24278;BMP280;12394;42.692;23.314;2022-11-20T10:30:15;94315.03;;;23.61
24278;BMP280;12394;42.692;23.314;2022-11-20T10:32:47;94353.28;;;23.19
24278;BMP280;12394;42.692;23.314;2022-11-20T10:37:42;94318.41;;;22.69
24278;BMP280;12394;42.692;23.314;2022-11-20T10:42:50;94332.34;;;21.42
24278;BMP280;12394;42.692;23.314;2022-11-20T10:45:28;94341.91;;;20.88
24278;BMP280;12394;42.692;23.314;2022-11-20T10:48:09;94333.34;;;20.58
24278;BMP280;12394;42.692;23.314;2022-11-20T10:50:40;94315.19;;;20.01
24278;BMP280;12394;42.692;23.314;2022-11-20T10:56:29;94342.09;;;19.21
24278;BMP280;12394;42.692;23.314;2022-11-20T11:01:43;94334.03;;;18.62
24278;BMP280;12394;42.692;23.314;2022-11-20T11:04:46;94350.19;;;18.31
24278;BMP280;12394;42.692;23.314;2022-11-20T11:09:50;94395.97;;;16.53
24278;BMP280;12394;42.692;23.314;2022-11-20T11:12:16;94389.03;;;15.10
24278;BMP280;12394;42.692;23.314;2022-11-20T11:14:50;94384.16;;;14.53
24278;BMP280;12394;42.692;23.314;2022-11-20T11:22:57;94376.25;;;13.77
24278;BMP280;12394;42.692;23.314;2022-11-20T11:27:52;94364.75;;;13.46
24278;BMP280;12394;42.692;23.314;2022-11-20T11:30:20;94335.41;;;13.34
24278;BMP280;12394;42.692;23.314;2022-11-20T11:32:46;94338.97;;;13.28
24278;BMP280;12394;42.692;23.314;2022-11-20T11:35:26;94350.75;;;13.36
24278;BMP280;12394;42.692;23.314;2022-11-20T11:38:03;94341.47;;;13.31
24278;BMP280;12394;42.692;23.314;2022-11-20T11:40:31;94338.09;;;13.18
24278;BMP280;12394;42.692;23.314;2022-11-20T11:43:05;94341.41;;;13.06
24278;BMP280;12394;42.692;23.314;2022-11-20T11:45:53;94349.75;;;13.17
24278;BMP280;12394;42.692;23.314;2022-11-20T11:48:20;94348.28;;;13.16
24278;BMP280;12394;42.692;23.314;2022-11-20T11:50:49;94344.94;;;13.16
24278;BMP280;12394;42.692;23.314;2022-11-20T11:53:18;94353.84;;;13.18
24278;BMP280;12394;42.692;23.314;2022-11-20T11:56:04;94346.75;;;13.31
24278;BMP280;12394;42.692;23.314;2022-11-20T11:58:44;94324.16;;;13.21
24278;BMP280;12394;42.692;23.314;2022-11-20T12:04:10;94342.97;;;13.32
24278;BMP280;12394;42.692;23.314;2022-11-20T12:06:42;94343.72;;;13.33
24278;BMP280;12394;42.692;23.314;2022-11-20T12:09:10;94333.19;;;13.33
24278;BMP280;12394;42.692;23.314;2022-11-20T12:12:12;94343.47;;;13.94
24278;BMP280;12394;42.692;23.314;2022-11-20T12:14:43;94336.63;;;13.71
24278;BMP280;12394;42.692;23.314;2022-11-20T12:17:12;94342.59;;;13.72
24278;BMP280;12394;42.692;23.314;2022-11-20T12:19:38;94341.97;;;13.68
24278;BMP280;12394;42.692;23.314;2022-11-20T12:25:24;94329.16;;;14.08
24278;BMP280;12394;42.692;23.314;2022-11-20T12:36:40;94344.41;;;13.88
24278;BMP280;12394;42.692;23.314;2022-11-20T12:51:17;94280.16;;;13.76
24278;BMP280;12394;42.692;23.314;2022-11-20T12:56:39;94283.41;;;13.67
24278;BMP280;12394;42.692;23.314;2022-11-20T13:01:55;94292.53;;;13.63
24278;BMP280;12394;42.692;23.314;2022-11-20T13:07:12;94272.06;;;13.58
24278;BMP280;12394;42.692;23.314;2022-11-20T13:09:46;94266.59;;;13.65
24278;BMP280;12394;42.692;23.314;2022-11-20T13:12:24;94269.31;;;13.61
24278;BMP280;12394;42.692;23.314;2022-11-20T13:19:58;94304.94;;;13.50
24278;BMP280;12394;42.692;23.314;2022-11-20T13:22:26;94333.34;;;13.67
24278;BMP280;12394;42.692;23.314;2022-11-20T13:24:52;94306.97;;;13.71
24278;BMP280;12394;42.692;23.314;2022-11-20T13:27:20;94292.25;;;13.61
24278;BMP280;12394;42.692;23.314;2022-11-20T13:30:28;94302.66;;;13.64
24278;BMP280;12394;42.692;23.314;2022-11-20T13:33:26;94316.53;;;13.77
24278;BMP280;12394;42.692;23.314;2022-11-20T13:36:04;94292.75;;;13.81
24278;BMP280;12394;42.692;23.314;2022-11-20T13:38:44;94315.69;;;13.93
24278;BMP280;12394;42.692;23.314;2022-11-20T13:41:34;94309.91;;;13.98
24278;BMP280;12394;42.692;23.314;2022-11-20T13:44:25;94286.00;;;14.05
24278;BMP280;12394;42.692;23.314;2022-11-20T13:46:52;94292.50;;;14.13
24278;BMP280;12394;42.692;23.314;2022-11-20T13:49:27;94326.06;;;14.22
24278;BMP280;12394;42.692;23.314;2022-11-20T13:54:55;94304.06;;;14.29
24278;BMP280;12394;42.692;23.314;2022-11-20T14:00:28;94344.38;;;14.38
24278;BMP280;12394;42.692;23.314;2022-11-20T14:05:56;94325.72;;;14.33
24278;BMP280;12394;42.692;23.314;2022-11-20T14:08:36;94338.16;;;14.45
24278;BMP280;12394;42.692;23.314;2022-11-20T14:11:18;94326.91;;;14.44
24278;BMP280;12394;42.692;23.314;2022-11-20T14:16:24;94314.66;;;14.50
24278;BMP280;12394;42.692;23.314;2022-11-20T14:18:50;94328.81;;;14.44
24278;BMP280;12394;42.692;23.314;2022-11-20T14:21:41;94321.31;;;14.42
24278;BMP280;12394;42.692;23.314;2022-11-20T14:24:10;94317.75;;;14.49
24278;BMP280;12394;42.692;23.314;2022-11-20T14:26:37;94315.94;;;14.46
24278;BMP280;12394;42.692;23.314;2022-11-20T14:29:04;94320.59;;;14.42
24278;BMP280;12394;42.692;23.314;2022-11-20T14:31:29;94319.09;;;14.41
24278;BMP280;12394;42.692;23.314;2022-11-20T14:33:55;94332.59;;;14.43
24278;BMP280;12394;42.692;23.314;2022-11-20T14:36:23;94338.06;;;14.36
24278;BMP280;12394;42.692;23.314;2022-11-20T14:38:50;94340.59;;;14.39
24278;BMP280;12394;42.692;23.314;2022-11-20T14:41:21;94330.50;;;14.38
24278;BMP280;12394;42.692;23.314;2022-11-20T14:43:54;94331.66;;;14.37
24278;BMP280;12394;42.692;23.314;2022-11-20T14:46:21;94310.09;;;14.16
24278;BMP280;12394;42.692;23.314;2022-11-20T14:48:50;94327.03;;;14.15
24278;BMP280;12394;42.692;23.314;2022-11-20T14:51:36;94330.41;;;14.16
24278;BMP280;12394;42.692;23.314;2022-11-20T14:54:14;94308.72;;;13.99
24278;BMP280;12394;42.692;23.314;2022-11-20T14:56:40;94327.56;;;14.10
24278;BMP280;12394;42.692;23.314;2022-11-20T14:59:07;94327.88;;;14.12
24278;BMP280;12394;42.692;23.314;2022-11-20T15:01:33;94339.75;;;14.17
24278;BMP280;12394;42.692;23.314;2022-11-20T15:04:19;94350.19;;;14.20
24278;BMP280;12394;42.692;23.314;2022-11-20T15:06:54;94353.09;;;14.22
24278;BMP280;12394;42.692;23.314;2022-11-20T15:09:21;94350.72;;;14.15
24278;BMP280;12394;42.692;23.314;2022-11-20T15:11:58;94354.50;;;14.14
24278;BMP280;12394;42.692;23.314;2022-11-20T15:14:25;94368.59;;;14.20
24278;BMP280;12394;42.692;23.314;2022-11-20T15:16:52;94355.56;;;14.17
24278;BMP280;12394;42.692;23.314;2022-11-20T15:19:20;94377.53;;;14.10
24278;BMP280;12394;42.692;23.314;2022-11-20T15:21:46;94383.31;;;14.05
24278;BMP280;12394;42.692;23.314;2022-11-20T15:24:11;94380.69;;;13.93
24278;BMP280;12394;42.692;23.314;2022-11-20T15:26:38;94394.34;;;14.00
24278;BMP280;12394;42.692;23.314;2022-11-20T15:29:14;94407.00;;;14.05
24278;BMP280;12394;42.692;23.314;2022-11-20T15:31:43;94388.88;;;13.82
24278;BMP280;12394;42.692;23.314;2022-11-20T15:34:14;94383.50;;;13.73
24278;BMP280;12394;42.692;23.314;2022-11-20T15:36:41;94395.28;;;13.68
24278;BMP280;12394;42.692;23.314;2022-11-20T15:39:07;94430.28;;;13.65
24278;BMP280;12394;42.692;23.314;2022-11-20T15:41:36;94454.94;;;13.84
24278;BMP280;12394;42.692;23.314;2022-11-20T15:44:03;94469.72;;;13.65